Time;durP1;ratioP1;P1;durP2;ratioP2;P2;SDS_P1;SDS_P2;PMS_P1;PMS_P2;Temp;Humidity;BMP_temperature;BMP_pressure;BME280_temperature;BME280_humidity;BME280_pressure;Samples;Min_cycle;Max_cycle;Signal;HPM_P1;HPM_P2
2021/09/14 00:01:29;;;;;;;7.30;3.10;;;16.50;95.70;;;;;;5053115;28;20035;-74
2021/09/14 00:03:54;;;;;;;6.40;2.83;;;16.40;95.70;;;;;;5052939;28;20101;-74
2021/09/14 00:06:20;;;;;;;7.95;2.95;;;16.40;95.70;;;;;;5052441;28;20112;-74
2021/09/14 00:08:45;;;;;;;7.18;3.50;;;16.40;95.70;;;;;;5053216;28;20035;-74
2021/09/14 00:11:11;;;;;;;7.90;3.38;;;16.40;95.70;;;;;;5052564;28;20025;-74
2021/09/14 00:13:37;;;;;;;8.43;3.65;;;16.40;95.70;;;;;;5052790;28;20461;-74
2021/09/14 00:16:03;;;;;;;10.35;3.65;;;16.40;96.00;;;;;;5052114;28;20146;-74
2021/09/14 00:18:28;;;;;;;6.00;3.17;;;16.40;95.80;;;;;;5071587;28;20024;-73
2021/09/14 00:20:54;;;;;;;6.55;3.30;;;16.30;95.80;;;;;;5072846;28;20101;-74
2021/09/14 00:23:20;;;;;;;8.10;3.92;;;16.30;95.80;;;;;;5072557;28;20067;-74
2021/09/14 00:25:45;;;;;;;8.50;3.72;;;16.30;95.80;;;;;;5071260;28;20021;-74
2021/09/14 00:28:11;;;;;;;7.40;3.60;;;16.30;95.90;;;;;;5072239;28;20024;-74
2021/09/14 00:30:36;;;;;;;6.45;3.10;;;16.30;95.80;;;;;;5054679;28;20043;-74
2021/09/14 00:33:02;;;;;;;8.13;3.60;;;16.30;95.90;;;;;;5051413;28;20032;-75
2021/09/14 00:35:28;;;;;;;7.90;3.38;;;16.30;95.90;;;;;;5051285;28;20025;-74
2021/09/14 00:37:54;;;;;;;7.93;3.63;;;16.20;95.90;;;;;;5051238;28;20354;-74
2021/09/14 00:40:19;;;;;;;8.27;3.50;;;16.30;95.90;;;;;;5051875;28;20539;-74
2021/09/14 00:42:45;;;;;;;5.97;3.08;;;16.30;95.90;;;;;;5052421;28;20021;-74
2021/09/14 00:45:11;;;;;;;7.40;3.15;;;16.30;95.90;;;;;;5050410;28;20025;-75
2021/09/14 00:47:37;;;;;;;8.35;3.75;;;16.30;95.90;;;;;;5052154;28;20095;-74
2021/09/14 00:50:05;;;;;;;8.23;3.40;;;16.20;95.90;;;;;;5052081;28;20033;-75
2021/09/14 00:52:33;;;;;;;7.13;2.90;;;16.20;95.90;;;;;;5051986;28;20025;-75
2021/09/14 00:54:59;;;;;;;5.82;3.42;;;16.20;95.90;;;;;;5052404;28;20127;-74
2021/09/14 00:57:24;;;;;;;6.25;3.00;;;16.20;95.90;;;;;;5051518;28;20029;-74
2021/09/14 00:59:50;;;;;;;6.70;3.47;;;16.20;95.90;;;;;;5052440;28;20385;-74
2021/09/14 01:02:16;;;;;;;7.18;3.22;;;16.20;95.90;;;;;;5050106;28;20465;-74
2021/09/14 01:04:41;;;;;;;7.25;3.60;;;16.20;95.90;;;;;;5051033;28;20273;-74
2021/09/14 01:07:07;;;;;;;6.90;3.40;;;16.20;95.90;;;;;;5051534;28;20032;-74
2021/09/14 01:09:36;;;;;;;7.50;3.22;;;16.10;95.90;;;;;;5051697;28;20036;-74
2021/09/14 01:12:02;;;;;;;9.63;3.10;;;16.10;95.90;;;;;;5052103;28;20025;-74
2021/09/14 01:14:28;;;;;;;7.78;3.50;;;16.10;95.90;;;;;;5051650;28;20454;-74
2021/09/14 01:16:54;;;;;;;6.50;3.38;;;16.10;95.90;;;;;;5051625;28;20029;-74
2021/09/14 01:19:19;;;;;;;6.70;3.63;;;16.10;95.90;;;;;;5049992;28;20075;-74
2021/09/14 01:21:45;;;;;;;6.80;3.65;;;16.10;95.90;;;;;;5051665;28;20052;-74
2021/09/14 01:24:12;;;;;;;7.03;3.63;;;16.10;95.90;;;;;;5051327;28;20450;-75
2021/09/14 01:26:39;;;;;;;9.73;4.18;;;16.10;96.00;;;;;;5050021;28;20131;-74
2021/09/14 01:29:09;;;;;;;5.88;3.40;;;16.10;96.00;;;;;;5051470;28;20100;-75
2021/09/14 01:31:36;;;;;;;7.70;3.35;;;16.10;96.00;;;;;;5052023;28;20025;-74
2021/09/14 01:34:02;;;;;;;6.53;3.33;;;16.10;95.90;;;;;;5051813;28;20017;-74
2021/09/14 01:36:28;;;;;;;7.70;3.45;;;16.00;95.90;;;;;;5049816;28;20037;-74
2021/09/14 01:38:54;;;;;;;10.15;3.92;;;16.10;95.90;;;;;;5051839;28;20532;-74
2021/09/14 01:41:20;;;;;;;8.60;3.30;;;16.00;95.90;;;;;;5051143;28;20025;-74
2021/09/14 01:43:47;;;;;;;10.13;3.72;;;16.00;95.90;;;;;;5051896;28;20154;-74
2021/09/14 01:46:12;;;;;;;7.03;3.70;;;16.00;95.90;;;;;;5049619;28;20036;-74
2021/09/14 01:48:38;;;;;;;8.40;3.80;;;16.00;95.90;;;;;;5050638;28;20025;-74
2021/09/14 01:51:05;;;;;;;8.65;3.53;;;16.00;95.90;;;;;;5050344;28;20025;-74
2021/09/14 01:53:31;;;;;;;6.85;3.58;;;16.00;95.90;;;;;;5050450;28;20039;-74
2021/09/14 01:56:05;;;;;;;7.60;3.38;;;16.00;95.90;;;;;;5050259;28;20021;-74
2021/09/14 01:58:31;;;;;;;9.35;4.40;;;16.00;95.90;;;;;;5051661;28;20025;-74
2021/09/14 02:01:17;;;;;;;7.07;3.50;;;16.00;95.90;;;;;;5051691;28;20044;-74
2021/09/14 02:04:01;;;;;;;8.80;3.38;;;15.90;95.90;;;;;;5051898;28;20027;-74
2021/09/14 02:39:04;;;;;;;6.72;3.47;;;15.80;96.00;;;;;;5054931;28;20086;-74
2021/09/14 02:42:02;;;;;;;7.80;3.63;;;15.80;96.00;;;;;;5054192;28;20021;-74
2021/09/14 03:00:28;;;;;;;8.70;3.85;;;15.70;96.00;;;;;;5053661;28;20401;-74
2021/09/14 03:02:54;;;;;;;8.82;3.75;;;15.70;96.00;;;;;;5054121;28;20021;-74
2021/09/14 03:05:19;;;;;;;7.45;4.05;;;15.60;96.00;;;;;;5052410;28;20025;-74
2021/09/14 03:07:45;;;;;;;8.38;3.85;;;15.70;96.00;;;;;;5053171;28;20465;-74
2021/09/14 03:10:11;;;;;;;7.45;4.03;;;15.70;96.00;;;;;;5052796;28;20176;-75
2021/09/14 03:12:36;;;;;;;7.90;4.32;;;15.60;96.00;;;;;;5052561;28;20424;-75
2021/09/14 03:15:02;;;;;;;9.13;4.63;;;15.60;96.10;;;;;;5054224;28;20057;-75
2021/09/14 03:17:28;;;;;;;9.25;4.10;;;15.60;96.10;;;;;;5053588;28;20062;-74
2021/09/14 03:19:54;;;;;;;9.15;3.65;;;15.60;96.10;;;;;;5051913;28;20151;-74
2021/09/14 03:22:19;;;;;;;10.55;4.10;;;15.60;96.10;;;;;;5053556;28;20055;-74
2021/09/14 03:24:45;;;;;;;9.35;4.20;;;15.60;96.10;;;;;;5053407;28;20029;-75
2021/09/14 03:27:11;;;;;;;9.90;4.47;;;15.60;96.10;;;;;;5053422;28;20453;-75
2021/09/14 03:29:36;;;;;;;8.38;4.40;;;15.60;96.10;;;;;;5053068;28;20025;-75
2021/09/14 03:32:02;;;;;;;8.90;4.10;;;15.60;96.20;;;;;;5052353;28;20021;-75
2021/09/14 03:34:28;;;;;;;7.75;3.83;;;15.60;96.20;;;;;;5052773;28;20017;-75
2021/09/14 03:36:53;;;;;;;8.00;4.45;;;15.60;96.10;;;;;;5053252;28;20029;-75
2021/09/14 03:39:19;;;;;;;10.75;4.60;;;15.60;96.20;;;;;;5051329;28;20381;-76
2021/09/14 03:41:45;;;;;;;8.55;4.00;;;15.60;96.20;;;;;;5051992;28;20017;-75
2021/09/14 03:44:10;;;;;;;7.97;4.43;;;15.60;96.20;;;;;;5053382;28;20029;-75
2021/09/14 03:46:36;;;;;;;9.63;3.92;;;15.50;96.20;;;;;;5052636;28;20060;-75
2021/09/14 03:49:02;;;;;;;10.48;4.53;;;15.50;96.20;;;;;;5053511;28;20017;-75
2021/09/14 03:51:29;;;;;;;8.43;4.05;;;15.40;96.20;;;;;;5051246;28;20450;-74
2021/09/14 03:53:55;;;;;;;10.38;4.50;;;15.50;96.20;;;;;;5053394;28;20100;-71
2021/09/14 03:56:20;;;;;;;11.32;4.40;;;15.40;96.20;;;;;;5052752;28;20104;-73
2021/09/14 03:58:46;;;;;;;8.20;4.28;;;15.40;96.20;;;;;;5052152;28;20052;-74
2021/09/14 04:01:11;;;;;;;11.45;4.80;;;15.40;96.20;;;;;;5053252;28;20421;-74
2021/09/14 04:03:43;;;;;;;8.23;4.53;;;15.40;96.20;;;;;;5059929;28;20016;-73
2021/09/14 04:08:54;;;;;;;11.90;5.47;;;15.40;96.30;;;;;;5072749;28;20464;-73
2021/09/14 04:11:21;;;;;;;8.30;4.30;;;15.40;96.30;;;;;;5071077;28;20052;-73
2021/09/14 04:13:51;;;;;;;9.52;4.72;;;15.40;96.20;;;;;;5072896;28;20024;-74
2021/09/14 04:16:18;;;;;;;9.43;4.55;;;15.40;96.20;;;;;;5071040;28;20033;-74
2021/09/14 04:18:44;;;;;;;11.13;5.03;;;15.40;96.20;;;;;;5072587;28;20527;-74
2021/09/14 04:21:10;;;;;;;10.23;4.53;;;15.40;96.20;;;;;;5072810;28;20074;-74
2021/09/14 04:23:36;;;;;;;9.73;4.53;;;15.40;96.20;;;;;;5072554;28;20040;-74
2021/09/14 04:26:02;;;;;;;10.25;5.57;;;15.40;96.20;;;;;;5072448;28;20056;-75
2021/09/14 04:28:28;;;;;;;12.68;6.60;;;15.40;96.20;;;;;;5070882;28;20024;-75
2021/09/14 04:30:54;;;;;;;9.85;4.82;;;15.40;96.20;;;;;;5071990;28;20370;-74
2021/09/14 04:33:19;;;;;;;10.23;5.20;;;15.30;96.20;;;;;;5070777;28;20079;-75
2021/09/14 04:35:45;;;;;;;9.75;5.07;;;15.40;96.20;;;;;;5072817;28;20445;-75
2021/09/14 04:38:11;;;;;;;12.63;5.57;;;15.30;96.20;;;;;;5071149;28;20068;-73
2021/09/14 04:40:36;;;;;;;11.40;5.05;;;15.30;96.20;;;;;;5071771;28;20233;-73
2021/09/14 04:43:02;;;;;;;9.80;5.03;;;15.30;96.20;;;;;;5072397;28;20058;-73
2021/09/14 04:45:28;;;;;;;10.40;4.88;;;15.30;96.20;;;;;;5071854;28;20354;-74
2021/09/14 04:47:54;;;;;;;11.07;5.13;;;15.30;96.20;;;;;;5071912;28;20032;-74
2021/09/14 04:50:19;;;;;;;10.05;5.15;;;15.30;96.20;;;;;;5070541;28;20036;-74
2021/09/14 04:52:45;;;;;;;9.68;4.80;;;15.30;96.20;;;;;;5072236;28;20047;-74
2021/09/14 04:55:11;;;;;;;9.85;5.43;;;15.30;96.20;;;;;;5071050;28;20056;-74
2021/09/14 04:57:37;;;;;;;9.75;5.20;;;15.30;96.20;;;;;;5071678;28;20106;-74
2021/09/14 05:00:05;;;;;;;15.48;5.97;;;15.20;96.20;;;;;;5070878;28;20020;-74
2021/09/14 05:02:30;;;;;;;10.18;5.18;;;15.20;96.20;;;;;;5070132;28;20050;-74
2021/09/14 05:04:58;;;;;;;10.45;5.38;;;15.20;96.30;;;;;;5072133;28;20029;-74
2021/09/14 05:07:24;;;;;;;10.15;5.50;;;15.20;96.30;;;;;;5071379;28;20056;-75
2021/09/14 05:09:49;;;;;;;9.88;4.97;;;15.30;96.30;;;;;;5072071;28;20071;-74
2021/09/14 05:12:15;;;;;;;9.85;4.95;;;15.30;96.30;;;;;;5070597;28;20055;-74
2021/09/14 05:14:41;;;;;;;10.30;5.40;;;15.30;96.20;;;;;;5071345;28;20030;-74
2021/09/14 05:17:06;;;;;;;10.13;5.00;;;15.30;96.20;;;;;;5071916;28;20078;-74
2021/09/14 05:19:34;;;;;;;9.35;5.13;;;15.30;96.30;;;;;;5071318;28;20030;-74
2021/09/14 05:22:00;;;;;;;9.70;5.13;;;15.20;96.30;;;;;;5070288;28;20025;-74
2021/09/14 05:24:30;;;;;;;10.70;4.88;;;15.30;96.30;;;;;;5070031;28;20529;-75
2021/09/14 05:26:57;;;;;;;10.43;4.72;;;15.30;96.30;;;;;;5071783;28;20127;-75
2021/09/14 05:29:23;;;;;;;10.77;5.15;;;15.30;96.30;;;;;;5071320;28;20024;-75
2021/09/14 05:31:50;;;;;;;10.85;5.25;;;15.30;96.30;;;;;;5071848;28;20032;-74
2021/09/14 05:34:16;;;;;;;8.88;5.03;;;15.30;96.30;;;;;;5071928;28;20029;-74
2021/09/14 05:36:43;;;;;;;11.55;5.38;;;15.30;96.30;;;;;;5069931;28;20069;-75
2021/09/14 05:39:08;;;;;;;11.05;5.13;;;15.30;96.40;;;;;;5071750;28;20021;-74
2021/09/14 05:41:34;;;;;;;12.93;5.15;;;15.30;96.40;;;;;;5071312;28;20024;-74
2021/09/14 05:44:00;;;;;;;11.45;5.90;;;15.30;96.40;;;;;;5075066;28;20064;-74
2021/09/14 05:46:26;;;;;;;9.48;5.43;;;15.30;96.40;;;;;;5074902;28;20033;-75
2021/09/14 05:48:52;;;;;;;11.77;5.68;;;15.30;96.30;;;;;;5075753;28;20105;-74
2021/09/14 05:51:18;;;;;;;11.10;5.68;;;15.30;96.30;;;;;;5075668;28;20453;-74
2021/09/14 05:53:44;;;;;;;8.70;5.18;;;15.30;96.50;;;;;;5075090;28;20021;-74
2021/09/14 05:56:10;;;;;;;10.52;4.70;;;15.30;96.20;;;;;;5075636;28;20043;-74
2021/09/14 05:58:36;;;;;;;12.25;5.72;;;15.40;96.20;;;;;;5074687;28;20074;-74
2021/09/14 06:01:02;;;;;;;11.88;5.40;;;15.40;96.20;;;;;;5074267;28;20020;-74
2021/09/14 06:03:28;;;;;;;10.40;5.20;;;15.40;96.20;;;;;;5073491;28;20012;-75
2021/09/14 06:05:54;;;;;;;10.52;5.32;;;15.40;96.10;;;;;;5075346;28;20020;-74
2021/09/14 06:08:20;;;;;;;11.65;5.65;;;15.50;96.10;;;;;;5075410;28;20036;-74
2021/09/14 06:10:46;;;;;;;10.95;5.88;;;15.50;96.00;;;;;;5073118;28;20027;-74
2021/09/14 06:13:12;;;;;;;10.82;5.57;;;15.50;96.00;;;;;;5073998;28;20024;-74
2021/09/14 06:15:37;;;;;;;12.90;5.75;;;15.60;96.00;;;;;;5074664;28;20029;-74
2021/09/14 06:18:03;;;;;;;11.68;5.70;;;15.60;95.90;;;;;;5075160;28;20457;-74
2021/09/14 06:20:29;;;;;;;10.73;5.47;;;15.60;95.90;;;;;;5073125;28;20070;-75
2021/09/14 06:22:54;;;;;;;14.23;5.75;;;15.70;95.80;;;;;;5073672;28;20087;-74
2021/09/14 06:25:20;;;;;;;10.63;5.13;;;15.70;95.80;;;;;;5073678;28;20025;-74
2021/09/14 06:27:46;;;;;;;10.95;5.10;;;15.70;95.80;;;;;;5072489;28;20049;-74
2021/09/14 06:30:12;;;;;;;10.50;5.55;;;15.70;95.80;;;;;;5073571;28;20025;-74
2021/09/14 06:32:37;;;;;;;10.77;5.82;;;15.70;95.80;;;;;;5074398;28;20028;-74
2021/09/14 06:35:03;;;;;;;11.82;5.70;;;15.70;95.80;;;;;;5073439;28;20059;-74
2021/09/14 06:37:29;;;;;;;12.43;6.40;;;15.80;95.70;;;;;;5074221;28;20487;-74
2021/09/14 06:39:55;;;;;;;12.70;6.32;;;15.80;95.70;;;;;;5074463;28;20020;-74
2021/09/14 06:42:20;;;;;;;10.75;5.18;;;15.90;95.70;;;;;;5073443;28;20019;-74
2021/09/14 06:44:46;;;;;;;11.80;6.07;;;15.90;95.60;;;;;;5074041;28;20480;-74
2021/09/14 06:47:12;;;;;;;13.00;5.82;;;15.90;95.60;;;;;;5074355;28;20032;-74
2021/09/14 06:49:37;;;;;;;10.70;5.70;;;16.00;95.60;;;;;;5073649;28;20021;-74
2021/09/14 06:52:03;;;;;;;12.68;6.45;;;16.10;95.50;;;;;;5074128;28;20101;-74
2021/09/14 06:54:29;;;;;;;10.32;6.15;;;16.10;95.50;;;;;;5071790;28;20020;-75
2021/09/14 06:56:54;;;;;;;10.00;5.88;;;16.10;95.40;;;;;;5073021;28;20337;-74
2021/09/14 06:59:20;;;;;;;12.90;6.50;;;16.10;95.40;;;;;;5072970;28;20078;-74
2021/09/14 07:01:46;;;;;;;12.23;6.30;;;16.20;95.40;;;;;;5073766;28;20044;-74
2021/09/14 07:04:11;;;;;;;9.90;5.55;;;16.20;95.40;;;;;;5074310;28;20036;-73
2021/09/14 07:06:37;;;;;;;11.00;6.28;;;16.30;95.30;;;;;;5072327;28;20029;-73
2021/09/14 07:09:03;;;;;;;11.40;6.10;;;16.30;95.30;;;;;;5074196;28;20473;-73
2021/09/14 07:11:29;;;;;;;17.65;7.20;;;16.30;95.30;;;;;;5072311;28;20457;-74
2021/09/14 07:13:57;;;;;;;10.63;5.90;;;16.30;95.30;;;;;;5074196;28;20020;-73
2021/09/14 07:16:23;;;;;;;10.35;5.78;;;16.30;95.20;;;;;;5074029;28;20023;-73
2021/09/14 07:18:49;;;;;;;10.77;5.43;;;16.30;95.20;;;;;;5073522;28;20029;-73
2021/09/14 07:21:15;;;;;;;10.70;5.53;;;16.30;95.20;;;;;;5073889;28;20025;-73
2021/09/14 07:23:41;;;;;;;10.65;5.20;;;16.30;95.30;;;;;;5073305;28;20056;-73
2021/09/14 07:26:07;;;;;;;12.55;5.63;;;16.30;95.30;;;;;;5073612;28;20040;-73
2021/09/14 07:28:32;;;;;;;10.77;6.10;;;16.30;95.30;;;;;;5073232;28;20431;-74
2021/09/14 07:30:58;;;;;;;12.15;6.45;;;16.30;95.30;;;;;;5073787;28;20046;-73
2021/09/14 07:33:23;;;;;;;10.95;5.78;;;16.30;95.30;;;;;;5074137;28;20037;-73
2021/09/14 07:35:49;;;;;;;10.38;5.75;;;16.40;95.30;;;;;;5071714;28;20043;-73
2021/09/14 07:38:15;;;;;;;13.43;6.18;;;16.40;95.50;;;;;;5073706;28;20056;-73
2021/09/14 07:40:40;;;;;;;13.02;6.90;;;16.50;95.20;;;;;;5072926;28;20082;-73
2021/09/14 07:43:06;;;;;;;10.63;5.50;;;16.50;95.10;;;;;;5072115;28;20070;-73
2021/09/14 07:45:32;;;;;;;12.50;6.45;;;16.50;95.10;;;;;;5073217;28;20029;-74
2021/09/14 07:47:57;;;;;;;12.73;6.38;;;16.60;95.00;;;;;;5072064;28;20032;-73
2021/09/14 07:50:23;;;;;;;12.93;6.60;;;16.60;95.00;;;;;;5072051;28;20051;-73
2021/09/14 07:52:50;;;;;;;13.55;7.28;;;16.60;95.00;;;;;;5072473;28;20487;-74
2021/09/14 07:55:16;;;;;;;13.23;6.30;;;16.60;95.00;;;;;;5072007;28;20472;-74
2021/09/14 07:57:42;;;;;;;11.50;6.60;;;16.60;95.00;;;;;;5072404;28;20048;-73
2021/09/14 08:00:08;;;;;;;11.80;6.55;;;16.60;94.90;;;;;;5071862;28;20482;-73
2021/09/14 08:02:34;;;;;;;13.43;6.15;;;16.60;95.00;;;;;;5072555;28;20016;-74
2021/09/14 08:04:59;;;;;;;13.23;6.85;;;16.60;94.90;;;;;;5073256;28;20047;-73
2021/09/14 08:07:25;;;;;;;9.40;5.28;;;16.60;95.00;;;;;;5071658;28;20107;-74
2021/09/14 08:09:51;;;;;;;11.18;6.25;;;16.60;95.10;;;;;;5072405;28;20832;-74
2021/09/14 08:12:16;;;;;;;14.23;7.03;;;16.60;95.00;;;;;;5071292;28;20031;-74
2021/09/14 08:14:42;;;;;;;13.60;5.75;;;16.60;95.00;;;;;;5072573;28;20020;-74
2021/09/14 08:17:08;;;;;;;11.15;6.13;;;16.60;95.00;;;;;;5072653;28;20039;-73
2021/09/14 08:19:33;;;;;;;11.02;6.63;;;16.70;95.10;;;;;;5071856;28;20098;-74
2021/09/14 08:21:59;;;;;;;13.27;6.60;;;16.70;95.10;;;;;;5072933;28;20020;-74
2021/09/14 08:24:25;;;;;;;9.35;4.82;;;16.70;95.30;;;;;;5071252;28;20028;-73
2021/09/14 08:26:51;;;;;;;12.25;6.95;;;16.70;95.00;;;;;;5073850;28;20098;-73
2021/09/14 08:29:17;;;;;;;12.48;6.90;;;16.80;95.00;;;;;;5072518;28;20039;-73
2021/09/14 08:31:43;;;;;;;10.73;5.55;;;16.80;95.00;;;;;;5071465;28;20052;-73
2021/09/14 08:34:09;;;;;;;15.93;7.07;;;16.80;95.20;;;;;;5071130;28;20035;-73
2021/09/14 08:36:35;;;;;;;14.32;7.13;;;16.80;95.00;;;;;;5071886;28;20056;-75
2021/09/14 08:39:02;;;;;;;13.07;6.32;;;16.90;95.00;;;;;;5071002;28;20024;-75
2021/09/14 08:41:28;;;;;;;11.77;6.38;;;16.90;95.00;;;;;;5071048;28;20016;-75
2021/09/14 08:43:55;;;;;;;12.93;6.53;;;16.90;95.00;;;;;;5070193;28;20645;-72
2021/09/14 08:46:22;;;;;;;13.00;6.55;;;17.00;95.00;;;;;;5072020;28;20058;-75
2021/09/14 08:48:49;;;;;;;10.75;6.22;;;17.00;94.90;;;;;;5071865;28;20036;-75
2021/09/14 08:51:16;;;;;;;13.30;8.18;;;17.00;94.90;;;;;;5070845;28;20024;-75
2021/09/14 08:53:42;;;;;;;16.02;7.03;;;17.10;94.90;;;;;;5071637;28;20081;-75
2021/09/14 08:56:10;;;;;;;12.73;7.30;;;17.10;94.90;;;;;;5072372;28;20020;-75
2021/09/14 08:58:37;;;;;;;14.25;7.65;;;17.20;94.80;;;;;;5071656;28;20025;-76
2021/09/14 09:01:12;;;;;;;13.38;7.55;;;17.20;95.10;;;;;;5072158;28;20020;-75
2021/09/14 09:03:39;;;;;;;12.27;7.00;;;17.30;94.80;;;;;;5070399;28;20017;-75
2021/09/14 09:06:05;;;;;;;11.68;5.70;;;17.40;94.70;;;;;;5070875;28;20024;-75
2021/09/14 09:08:31;;;;;;;12.20;6.97;;;17.40;94.70;;;;;;5071984;28;20020;-75
2021/09/14 09:11:12;;;;;;;13.75;7.30;;;17.50;94.60;;;;;;5070249;28;20029;-75
2021/09/14 09:13:44;;;;;;;10.93;6.95;;;17.60;94.60;;;;;;5071476;28;20071;-75
2021/09/14 09:16:27;;;;;;;12.50;7.03;;;17.60;94.50;;;;;;5070665;28;20123;-75
2021/09/14 09:18:54;;;;;;;15.95;8.02;;;17.70;94.50;;;;;;5071053;28;20027;-75
2021/09/14 09:21:35;;;;;;;11.45;6.70;;;17.80;94.40;;;;;;5071912;28;20029;-75
2021/09/14 09:24:05;;;;;;;11.00;7.00;;;17.80;94.40;;;;;;5071509;28;20032;-75
2021/09/14 09:26:36;;;;;;;12.13;6.43;;;17.90;94.30;;;;;;5071869;28;20105;-75
2021/09/14 09:29:06;;;;;;;11.77;6.20;;;17.90;94.30;;;;;;5070301;28;20709;-75
2021/09/14 09:31:36;;;;;;;12.48;6.75;;;18.00;94.20;;;;;;5071769;28;20024;-75
2021/09/14 09:34:01;;;;;;;14.02;7.85;;;18.10;94.20;;;;;;5070856;28;20020;-75
2021/09/14 09:36:33;;;;;;;12.07;6.57;;;18.10;94.10;;;;;;5070500;28;20469;-75
2021/09/14 09:39:01;;;;;;;;;;;18.30;94.00;;;;;;5070308;28;20099;-75
2021/09/14 09:41:27;;;;;;;11.18;6.82;;;18.40;93.80;;;;;;5071821;28;19911;-75
2021/09/14 09:44:04;;;;;;;13.02;6.65;;;18.50;93.60;;;;;;5069784;28;20032;-72
2021/09/14 09:46:30;;;;;;;11.20;6.97;;;18.70;93.50;;;;;;5071321;28;20056;-72
2021/09/14 09:48:56;;;;;;;12.88;7.15;;;18.80;93.40;;;;;;5070980;28;20103;-73
2021/09/14 09:51:23;;;;;;;13.18;6.93;;;18.80;93.30;;;;;;5071190;28;20032;-72
2021/09/14 09:53:51;;;;;;;12.15;6.75;;;18.90;93.30;;;;;;5071095;28;20357;-75
2021/09/14 09:56:18;;;;;;;12.75;7.40;;;19.10;93.20;;;;;;5070104;28;20120;-75
2021/09/14 09:58:46;;;;;;;13.93;6.95;;;19.20;93.00;;;;;;5070763;28;20469;-75
2021/09/14 10:01:23;;;;;;;11.77;6.93;;;19.30;93.00;;;;;;5070188;28;20013;-75
2021/09/14 10:04:19;;;;;;;15.65;7.88;;;19.30;92.80;;;;;;5069614;28;20070;-75
2021/09/14 10:06:51;;;;;;;10.98;6.63;;;19.40;92.90;;;;;;5069165;28;20036;-75
2021/09/14 10:09:17;;;;;;;11.45;6.18;;;19.40;92.80;;;;;;5071484;28;20025;-73
2021/09/14 10:11:54;;;;;;;12.73;6.78;;;19.50;92.70;;;;;;5069579;28;20031;-73
2021/09/14 10:14:20;;;;;;;15.10;7.30;;;19.60;92.60;;;;;;5071672;28;20040;-75
2021/09/14 10:16:46;;;;;;;12.35;6.15;;;19.70;92.60;;;;;;5071102;28;20029;-75
2021/09/14 10:19:17;;;;;;;12.45;7.60;;;19.70;92.50;;;;;;5070185;28;20024;-72
2021/09/14 10:22:04;;;;;;;12.43;6.57;;;19.80;92.40;;;;;;5069499;28;20020;-73
2021/09/14 10:24:31;;;;;;;12.93;7.38;;;19.90;92.30;;;;;;5071039;28;20051;-74
2021/09/14 10:27:12;;;;;;;14.55;7.20;;;19.90;92.20;;;;;;5070505;28;20067;-74
2021/09/14 10:29:41;;;;;;;12.43;6.72;;;20.00;92.20;;;;;;5070960;28;20036;-73
2021/09/14 10:32:14;;;;;;;13.07;6.65;;;20.00;92.20;;;;;;5073302;28;20056;-74
2021/09/14 10:34:54;;;;;;;19.25;9.15;;;20.10;92.20;;;;;;5073452;28;20025;-73
2021/09/14 10:37:20;;;;;;;15.90;8.50;;;20.10;92.20;;;;;;5073367;28;20121;-73
2021/09/14 10:39:46;;;;;;;15.10;8.85;;;20.10;92.10;;;;;;5073925;28;20060;-74
2021/09/14 10:42:21;;;;;;;10.95;6.57;;;20.10;92.20;;;;;;5074646;28;20077;-74
2021/09/14 10:44:49;;;;;;;13.95;7.97;;;20.20;92.50;;;;;;5073784;28;20028;-74
2021/09/14 10:47:18;;;;;;;13.60;8.05;;;20.20;92.20;;;;;;5074505;28;20056;-74
2021/09/14 10:49:49;;;;;;;12.35;7.55;;;20.10;92.10;;;;;;5073883;28;20013;-75
2021/09/14 10:52:30;;;;;;;14.57;7.90;;;20.20;92.10;;;;;;5074546;28;20025;-74
2021/09/14 10:54:56;;;;;;;12.57;7.30;;;20.20;92.10;;;;;;5074089;28;20028;-74
2021/09/14 10:57:31;;;;;;;11.48;6.75;;;20.20;92.10;;;;;;5072901;28;20078;-75
2021/09/14 10:59:57;;;;;;;13.07;6.97;;;20.20;92.10;;;;;;5074047;28;20415;-75
2021/09/14 11:02:24;;;;;;;13.65;7.20;;;20.20;92.10;;;;;;5074042;28;20050;-75
2021/09/14 11:04:50;;;;;;;14.73;8.45;;;20.30;92.10;;;;;;5073831;28;20021;-74
2021/09/14 11:07:17;;;;;;;12.98;7.60;;;20.40;92.00;;;;;;5072845;28;20032;-74
2021/09/14 11:09:44;;;;;;;12.77;7.72;;;20.50;91.90;;;;;;5074128;28;20020;-75
2021/09/14 11:12:31;;;;;;;13.02;7.78;;;20.60;91.90;;;;;;5074274;28;20028;-74
2021/09/14 11:15:00;;;;;;;9.48;6.57;;;20.70;91.70;;;;;;5072290;28;20027;-74
2021/09/14 11:17:31;;;;;;;13.25;7.18;;;20.70;91.70;;;;;;5072748;28;20036;-74
2021/09/14 11:20:18;;;;;;;12.60;7.60;;;20.80;91.60;;;;;;5072226;28;20012;-74
2021/09/14 11:22:45;;;;;;;12.23;6.97;;;20.90;91.60;;;;;;5074205;28;20032;-74
2021/09/14 11:25:17;;;;;;;11.10;6.10;;;20.90;91.60;;;;;;5073959;28;20050;-74
2021/09/14 11:28:01;;;;;;;;;;;20.90;91.70;;;;;;5074504;28;20040;-74
2021/09/14 11:30:27;;;;;;;12.60;7.15;;;20.90;91.60;;;;;;5074249;28;19904;-74
2021/09/14 11:32:54;;;;;;;14.75;9.35;;;21.10;91.60;;;;;;5071890;28;20020;-75
2021/09/14 11:35:20;;;;;;;11.98;6.70;;;21.10;91.50;;;;;;5073458;28;20042;-74
2021/09/14 11:37:59;;;;;;;15.50;7.93;;;21.10;91.50;;;;;;5073807;28;20036;-74
2021/09/14 11:40:25;;;;;;;10.50;7.25;;;21.20;91.40;;;;;;5073025;28;20119;-74
2021/09/14 11:43:03;;;;;;;11.48;7.22;;;21.30;91.40;;;;;;5072919;28;20024;-74
2021/09/14 11:45:30;;;;;;;13.95;6.93;;;21.40;91.20;;;;;;5073643;28;20096;-73
2021/09/14 11:47:57;;;;;;;13.88;7.90;;;21.50;91.10;;;;;;5072889;28;20025;-73
2021/09/14 11:50:29;;;;;;;13.13;6.47;;;21.60;91.00;;;;;;5073442;28;20133;-73
2021/09/14 11:53:13;;;;;;;12.57;8.05;;;21.60;90.80;;;;;;5073058;28;20020;-74
2021/09/14 11:55:44;;;;;;;11.65;6.95;;;21.80;90.70;;;;;;5072029;28;20070;-73
2021/09/14 11:58:10;;;;;;;12.77;7.35;;;21.90;90.70;;;;;;5071264;28;20032;-74
2021/09/14 12:00:36;;;;;;;10.75;5.65;;;22.00;90.70;;;;;;5073417;28;20020;-73
2021/09/14 12:03:02;;;;;;;11.95;7.28;;;22.00;90.70;;;;;;5072567;28;20020;-74
2021/09/14 12:05:28;;;;;;;13.02;7.20;;;22.20;90.70;;;;;;5071883;28;20115;-73
2021/09/14 12:08:09;;;;;;;11.63;6.72;;;22.20;90.60;;;;;;5072153;28;20477;-74
2021/09/14 12:10:43;;;;;;;10.27;6.45;;;22.40;90.50;;;;;;5071978;28;20024;-74
2021/09/14 12:13:17;;;;;;;11.57;6.65;;;22.50;90.40;;;;;;5071102;28;20082;-74
2021/09/14 12:15:43;;;;;;;12.43;6.75;;;22.60;90.20;;;;;;5071619;28;20043;-74
2021/09/14 12:18:09;;;;;;;9.45;5.53;;;22.60;90.20;;;;;;5071122;28;20233;-73
2021/09/14 12:20:34;;;;;;;10.15;5.40;;;22.60;90.10;;;;;;5073405;28;20031;-74
2021/09/14 12:23:00;;;;;;;11.63;5.38;;;22.60;90.00;;;;;;5074178;28;20029;-74
2021/09/14 12:25:26;;;;;;;8.15;5.05;;;22.70;89.70;;;;;;5071634;28;20028;-74
2021/09/14 12:27:51;;;;;;;8.77;5.03;;;22.70;89.60;;;;;;5072020;28;20048;-74
2021/09/14 12:30:17;;;;;;;9.23;5.40;;;22.70;89.40;;;;;;5071232;28;20070;-74
2021/09/14 12:32:43;;;;;;;10.13;5.93;;;22.70;89.40;;;;;;5072612;28;20021;-74
2021/09/14 12:35:09;;;;;;;7.65;5.03;;;22.70;89.20;;;;;;5070521;28;20103;-74
2021/09/14 12:37:34;;;;;;;7.70;5.03;;;22.70;89.20;;;;;;5071181;28;20056;-74
2021/09/14 12:40:00;;;;;;;8.90;5.80;;;22.70;89.00;;;;;;5071673;28;20104;-73
2021/09/14 12:42:25;;;;;;;10.57;5.53;;;22.70;88.80;;;;;;5072325;28;20104;-74
2021/09/14 12:44:51;;;;;;;6.47;3.70;;;22.70;88.60;;;;;;5070347;28;20017;-74
2021/09/14 12:47:17;;;;;;;8.27;5.30;;;22.80;88.70;;;;;;5072036;28;20028;-74
2021/09/14 12:49:42;;;;;;;8.30;5.03;;;22.70;88.60;;;;;;5071990;28;20024;-74
2021/09/14 12:52:08;;;;;;;9.23;4.85;;;22.80;88.60;;;;;;5070964;28;20154;-74
2021/09/14 12:54:33;;;;;;;9.02;4.65;;;22.80;88.50;;;;;;5072152;28;20104;-74
2021/09/14 12:57:00;;;;;;;7.57;4.20;;;22.80;88.40;;;;;;5070278;28;20116;-73
2021/09/14 12:59:26;;;;;;;5.95;3.95;;;22.80;88.20;;;;;;5070422;28;20039;-74
2021/09/14 13:01:52;;;;;;;8.63;4.72;;;22.90;87.90;;;;;;5071875;28;20021;-74
2021/09/14 13:04:17;;;;;;;8.35;5.05;;;23.00;87.70;;;;;;5072041;28;20108;-73
2021/09/14 13:06:43;;;;;;;7.30;3.97;;;23.10;87.60;;;;;;5071949;28;20334;-73
2021/09/14 13:09:09;;;;;;;7.05;4.07;;;23.10;87.30;;;;;;5071226;28;20070;-76
2021/09/14 13:11:34;;;;;;;8.98;4.75;;;23.20;87.30;;;;;;5070714;28;20416;-73
2021/09/14 13:16:48;;;;;;;7.90;4.88;;;23.20;87.00;;;;;;5070668;28;20028;-74
2021/09/14 13:19:14;;;;;;;6.68;4.35;;;23.20;87.00;;;;;;5071468;28;20183;-74
2021/09/14 13:21:40;;;;;;;7.38;3.92;;;23.10;87.10;;;;;;5071532;28;20166;-74
2021/09/14 13:24:05;;;;;;;8.57;4.97;;;23.00;87.40;;;;;;5070974;28;20119;-74
2021/09/14 13:26:31;;;;;;;9.60;4.90;;;22.90;87.70;;;;;;5071701;28;20052;-74
2021/09/14 13:28:56;;;;;;;8.30;4.38;;;22.80;87.90;;;;;;5071210;28;20365;-74
2021/09/14 13:31:22;;;;;;;6.93;3.90;;;22.80;88.00;;;;;;5071929;28;20089;-74
2021/09/14 13:33:48;;;;;;;11.40;5.65;;;22.70;88.20;;;;;;5071810;28;20170;-74
2021/09/14 13:36:16;;;;;;;8.07;4.50;;;22.70;88.30;;;;;;5071230;28;20488;-74